createdAt,value
2018-12-27T00:00:19.055Z,51.30
2018-12-27T00:02:54.624Z,49.27
2018-12-27T00:05:18.146Z,49.48
2018-12-27T00:07:46.982Z,53.73
2018-12-27T00:10:15.787Z,51.40
2018-12-27T00:12:45.817Z,55.75
2018-12-27T00:15:14.651Z,45.35
2018-12-27T00:18:04.991Z,50.03
2018-12-27T00:20:54.837Z,48.68
2018-12-27T00:23:23.675Z,43.73
2018-12-27T00:26:48.421Z,43.30
2018-12-27T00:29:17.118Z,54.20
2018-12-27T00:31:46.031Z,48.23
2018-12-27T00:34:15.017Z,49.50
2018-12-27T00:36:46.899Z,49.38
2018-12-27T00:39:15.801Z,55.43
2018-12-27T00:41:44.819Z,47.60
2018-12-27T00:44:13.759Z,47.38
2018-12-27T00:46:42.699Z,45.78
2018-12-27T00:49:11.630Z,48.95
2018-12-27T00:51:40.838Z,48.20
2018-12-27T00:54:10.888Z,51.15
2018-12-27T00:56:39.901Z,46.20
2018-12-27T00:59:08.863Z,45.17
2018-12-27T01:01:37.808Z,45.78
2018-12-27T01:04:06.751Z,40.73
2018-12-27T01:06:37.652Z,53.08
2018-12-27T01:09:06.740Z,50.38
2018-12-27T01:11:36.781Z,40.12
2018-12-27T01:14:05.922Z,49.05
2018-12-27T01:16:47.725Z,37.05
2018-12-27T01:19:22.448Z,38.33
2018-12-27T01:21:51.382Z,43.75
2018-12-27T01:24:20.371Z,44.05
2018-12-27T01:26:49.414Z,44.00
2018-12-27T01:29:18.305Z,46.88
2018-12-27T01:31:50.641Z,50.40
2018-12-27T01:34:18.922Z,42.30
2018-12-27T01:37:01.963Z,38.28
2018-12-27T01:39:30.902Z,41.15
2018-12-27T01:42:00.018Z,40.92
2018-12-27T01:44:29.018Z,48.17
2018-12-27T01:46:57.983Z,41.33
2018-12-27T01:49:26.924Z,44.20
2018-12-27T01:51:55.874Z,47.40
2018-12-27T01:54:24.873Z,40.20
2018-12-27T01:56:53.763Z,43.83
2018-12-27T01:59:22.789Z,38.92
2018-12-27T02:01:51.714Z,33.63
2018-12-27T02:04:20.654Z,39.13
2018-12-27T02:06:49.700Z,43.10
2018-12-27T02:09:18.626Z,40.75
2018-12-27T02:11:47.543Z,41.48
2018-12-27T02:14:16.559Z,45.40
2018-12-27T02:16:45.467Z,42.90
2018-12-27T02:19:14.489Z,41.42
2018-12-27T02:21:43.538Z,43.50
2018-12-27T02:24:12.503Z,43.73
2018-12-27T02:26:41.528Z,44.38
2018-12-27T02:29:10.439Z,48.17
2018-12-27T02:31:39.430Z,41.05
2018-12-27T02:34:08.369Z,43.28
2018-12-27T02:36:37.273Z,46.00
2018-12-27T02:39:07.473Z,44.75
2018-12-27T02:41:36.430Z,47.95
2018-12-27T02:44:05.449Z,44.85
2018-12-27T02:46:34.386Z,40.63
2018-12-27T02:49:03.313Z,41.48
2018-12-27T02:51:32.261Z,42.73
2018-12-27T02:54:01.166Z,46.13
2018-12-27T02:56:30.080Z,56.58
2018-12-27T02:58:59.032Z,43.00
2018-12-27T03:01:28.106Z,48.90
2018-12-27T03:03:57.048Z,46.48
2018-12-27T03:06:26.006Z,49.18
2018-12-27T03:08:54.884Z,48.87
2018-12-27T03:11:23.802Z,44.77
2018-12-27T03:13:52.735Z,44.05
2018-12-27T03:16:21.633Z,41.88
2018-12-27T03:18:50.542Z,38.28
2018-12-27T03:21:19.476Z,44.15
2018-12-27T03:23:48.405Z,38.13
2018-12-27T03:26:17.360Z,40.17
2018-12-27T03:28:46.237Z,49.42
2018-12-27T03:31:15.140Z,43.73
2018-12-27T03:33:52.487Z,38.00
2018-12-27T03:36:14.719Z,47.53
2018-12-27T03:38:43.629Z,40.83
2018-12-27T03:41:12.575Z,41.68
2018-12-27T03:43:41.502Z,52.10
2018-12-27T03:46:10.463Z,47.62
2018-12-27T03:48:39.348Z,44.58
2018-12-27T03:51:08.292Z,48.45
2018-12-27T03:53:37.205Z,50.75
2018-12-27T03:56:06.141Z,40.78
2018-12-27T03:58:35.152Z,46.02
2018-12-27T04:01:04.057Z,45.63
2018-12-27T04:03:32.958Z,44.10
2018-12-27T04:06:01.851Z,42.78
2018-12-27T04:08:30.741Z,37.83
2018-12-27T04:10:59.630Z,36.55
2018-12-27T04:13:28.558Z,47.30
2018-12-27T04:15:57.186Z,38.60
2018-12-27T04:18:25.852Z,48.10
2018-12-27T04:20:54.576Z,40.35
2018-12-27T04:23:23.307Z,41.02
2018-12-27T04:25:52.031Z,42.03
2018-12-27T04:28:20.725Z,47.25
2018-12-27T04:30:49.567Z,40.85
2018-12-27T04:33:18.714Z,36.42
2018-12-27T04:35:49.150Z,44.75
2018-12-27T04:38:17.908Z,37.48
2018-12-27T04:40:46.545Z,36.95
2018-12-27T04:43:15.264Z,34.05
2018-12-27T04:45:43.902Z,41.23
2018-12-27T04:48:12.683Z,42.50
2018-12-27T04:50:41.338Z,46.18
2018-12-27T04:53:10.080Z,44.83
2018-12-27T04:55:38.721Z,38.53
2018-12-27T04:58:07.382Z,44.40
2018-12-27T05:00:36.052Z,42.35
2018-12-27T05:03:04.720Z,43.92
2018-12-27T05:05:33.463Z,42.53
2018-12-27T05:08:02.124Z,44.13
2018-12-27T05:10:30.756Z,40.33
2018-12-27T05:12:59.531Z,42.23
2018-12-27T05:15:28.170Z,41.33
2018-12-27T05:17:56.831Z,38.85
2018-12-27T05:20:25.599Z,45.23
2018-12-27T05:22:54.274Z,47.35
2018-12-27T05:25:22.923Z,46.08
2018-12-27T05:27:51.594Z,47.93
2018-12-27T05:30:20.240Z,45.55
2018-12-27T05:32:48.925Z,53.23
2018-12-27T05:35:17.560Z,46.85
2018-12-27T05:37:46.246Z,42.20
2018-12-27T05:40:14.920Z,44.35
2018-12-27T05:42:43.569Z,45.35
2018-12-27T05:45:12.310Z,47.05
2018-12-27T05:47:41.006Z,43.85
2018-12-27T05:50:09.705Z,45.35
2018-12-27T05:52:38.399Z,46.05
2018-12-27T05:55:07.103Z,52.00
2018-12-27T05:57:35.780Z,54.58
2018-12-27T06:00:04.894Z,54.50
2018-12-27T06:02:33.559Z,41.88
2018-12-27T06:05:02.317Z,44.85
2018-12-27T06:07:31.004Z,57.13
2018-12-27T06:09:59.660Z,54.58
2018-12-27T06:12:28.292Z,45.78
2018-12-27T06:14:56.977Z,48.58
2018-12-27T06:17:25.622Z,49.23
2018-12-27T06:19:54.273Z,48.87
2018-12-27T06:22:22.917Z,44.67
2018-12-27T06:24:51.623Z,47.38
2018-12-27T06:27:20.289Z,46.65
2018-12-27T06:29:48.955Z,47.93
2018-12-27T06:32:17.621Z,42.45
2018-12-27T06:34:46.256Z,61.60
2018-12-27T06:37:14.950Z,51.95
2018-12-27T06:39:43.601Z,51.13
2018-12-27T06:42:12.258Z,49.00
2018-12-27T06:44:40.915Z,48.65
2018-12-27T06:47:09.564Z,56.23
2018-12-27T06:49:38.239Z,50.73
2018-12-27T06:52:06.912Z,56.37
2018-12-27T06:54:35.541Z,50.48
2018-12-27T06:57:04.228Z,55.98
2018-12-27T06:59:32.889Z,62.83
2018-12-27T07:02:01.531Z,58.13
2018-12-27T07:04:30.217Z,50.35
2018-12-27T07:06:58.890Z,50.30
2018-12-27T07:09:27.523Z,44.27
2018-12-27T07:11:56.489Z,50.90
2018-12-27T07:14:25.143Z,57.73
2018-12-27T07:16:53.848Z,55.85
2018-12-27T07:19:22.546Z,51.18
2018-12-27T07:21:51.250Z,45.78
2018-12-27T07:24:19.921Z,52.38
2018-12-27T07:26:48.575Z,47.95
2018-12-27T07:29:17.281Z,67.42
2018-12-27T07:31:45.941Z,64.62
2018-12-27T07:34:14.599Z,58.52
2018-12-27T07:36:43.245Z,60.03
2018-12-27T07:39:11.956Z,65.10
2018-12-27T07:41:40.608Z,57.58
2018-12-27T07:44:09.244Z,60.60
2018-12-27T07:46:37.881Z,65.57
2018-12-27T07:49:06.522Z,61.28
2018-12-27T07:51:35.192Z,57.80
2018-12-27T07:54:03.893Z,63.35
2018-12-27T07:56:32.576Z,68.12
2018-12-27T07:59:01.279Z,60.63
2018-12-27T08:01:29.953Z,59.90
2018-12-27T08:03:58.607Z,52.23
2018-12-27T08:06:27.841Z,55.70
2018-12-27T08:08:56.680Z,62.98
2018-12-27T08:11:25.303Z,65.32
2018-12-27T08:13:54.230Z,49.75
2018-12-27T08:16:22.888Z,60.85
2018-12-27T08:18:51.545Z,51.77
2018-12-27T08:21:20.156Z,51.25
2018-12-27T08:23:48.815Z,47.75
2018-12-27T08:26:17.713Z,50.90
2018-12-27T08:28:46.330Z,52.95
2018-12-27T08:31:14.982Z,52.38
2018-12-27T08:33:43.649Z,51.25
2018-12-27T08:36:12.344Z,58.15
2018-12-27T08:38:41.052Z,60.12
2018-12-27T08:41:09.725Z,63.80
2018-12-27T08:43:38.397Z,58.10
2018-12-27T08:46:07.077Z,57.50
2018-12-27T08:48:35.702Z,68.17
2018-12-27T08:51:04.369Z,63.63
2018-12-27T08:53:32.997Z,57.27
2018-12-27T08:56:01.751Z,63.10
2018-12-27T08:58:30.417Z,52.70
2018-12-27T09:00:59.051Z,66.70
2018-12-27T09:03:27.672Z,61.20
2018-12-27T09:05:56.385Z,56.02
2018-12-27T09:08:25.067Z,58.75
2018-12-27T09:10:53.706Z,60.08
2018-12-27T09:13:22.335Z,61.85
2018-12-27T09:15:51.084Z,58.38
2018-12-27T09:18:19.713Z,65.40
2018-12-27T09:20:48.367Z,60.63
2018-12-27T09:23:16.986Z,56.77
2018-12-27T09:25:45.760Z,60.65
2018-12-27T09:28:14.430Z,69.95
2018-12-27T09:30:43.160Z,59.05
2018-12-27T09:33:11.801Z,50.05
2018-12-27T09:35:40.506Z,63.55
2018-12-27T09:38:09.146Z,49.23
2018-12-27T09:40:37.814Z,62.43
2018-12-27T09:43:07.809Z,60.98
2018-12-27T09:53:39.336Z,63.10
2018-12-27T09:59:57.435Z,63.87
2018-12-27T10:06:52.104Z,58.30
2018-12-27T10:09:20.953Z,60.08
2018-12-27T10:12:04.873Z,59.23
2018-12-27T10:14:37.895Z,64.97
2018-12-27T10:37:07.322Z,72.55
2018-12-27T10:37:59.398Z,58.10
2018-12-27T10:40:28.867Z,71.28
2018-12-27T10:42:57.797Z,87.20
2018-12-27T10:45:28.570Z,56.77
2018-12-27T10:48:05.852Z,71.33
2018-12-27T10:50:40.255Z,56.83
2018-12-27T10:53:09.123Z,55.80
2018-12-27T10:55:38.032Z,54.23
2018-12-27T10:58:06.884Z,53.75
2018-12-27T11:00:35.882Z,60.40
2018-12-27T11:03:04.901Z,49.63
2018-12-27T11:05:33.933Z,54.10
2018-12-27T11:08:20.175Z,56.77
2018-12-27T11:10:49.138Z,53.60
2018-12-27T11:13:30.680Z,48.60
2018-12-27T11:15:59.557Z,44.55
2018-12-27T11:18:31.012Z,49.95
2018-12-27T11:20:59.985Z,59.42
2018-12-27T11:23:28.958Z,50.28
2018-12-27T11:25:57.990Z,55.38
2018-12-27T11:28:41.681Z,49.88
2018-12-27T11:31:10.550Z,50.83
2018-12-27T11:33:49.203Z,52.83
2018-12-27T11:36:18.489Z,47.88
2018-12-27T11:38:47.506Z,52.88
2018-12-27T11:41:16.484Z,57.17
2018-12-27T11:43:45.622Z,53.52
2018-12-27T11:46:14.848Z,53.05
2018-12-27T11:48:43.934Z,58.42
2018-12-27T11:51:13.115Z,49.90
2018-12-27T11:53:42.252Z,53.05
2018-12-27T11:56:11.255Z,66.57
2018-12-27T11:58:40.383Z,59.27
2018-12-27T12:01:17.799Z,56.05
2018-12-27T12:03:47.048Z,59.25
2018-12-27T12:06:16.299Z,56.48
2018-12-27T12:08:45.466Z,59.77
2018-12-27T12:11:14.798Z,58.68
2018-12-27T12:13:47.990Z,54.70
2018-12-27T12:16:16.450Z,55.25
2018-12-27T12:18:45.426Z,61.53
2018-12-27T12:21:14.430Z,56.88
2018-12-27T12:23:43.834Z,50.92
2018-12-27T12:26:12.812Z,52.75
2018-12-27T12:28:41.854Z,48.38
2018-12-27T12:31:10.988Z,57.85
2018-12-27T12:33:39.884Z,62.03
2018-12-27T12:36:16.178Z,56.18
2018-12-27T12:38:47.894Z,56.90
2018-12-27T12:41:16.830Z,61.65
2018-12-27T12:43:48.538Z,62.55
2018-12-27T12:46:17.672Z,57.43
2018-12-27T12:48:46.552Z,58.08
2018-12-27T12:51:18.709Z,63.85
2018-12-27T12:53:47.685Z,65.37
2018-12-27T12:56:25.174Z,57.20
2018-12-27T12:58:54.029Z,57.80
2018-12-27T13:01:28.859Z,55.12
2018-12-27T13:03:57.741Z,60.05
2018-12-27T13:06:26.698Z,55.88
2018-12-27T13:08:55.648Z,52.60
2018-12-27T13:11:24.806Z,59.23
2018-12-27T13:13:53.980Z,58.35
2018-12-27T13:16:22.931Z,55.98
2018-12-27T13:18:51.856Z,51.28
2018-12-27T13:21:20.919Z,51.20
2018-12-27T13:23:49.894Z,52.83
2018-12-27T13:26:18.812Z,56.15
2018-12-27T13:28:47.824Z,43.95
2018-12-27T13:31:16.709Z,49.77
2018-12-27T13:33:45.796Z,46.02
2018-12-27T13:36:14.491Z,46.25
2018-12-27T13:38:43.373Z,53.68
2018-12-27T13:41:12.508Z,40.65
2018-12-27T13:43:41.389Z,37.75
2018-12-27T13:46:10.469Z,41.28
2018-12-27T13:48:39.437Z,41.33
2018-12-27T13:51:08.357Z,38.05
2018-12-27T13:53:37.435Z,42.05
2018-12-27T13:56:06.295Z,42.73
2018-12-27T13:58:35.255Z,39.88
2018-12-27T14:01:04.218Z,46.58
2018-12-27T14:03:33.163Z,43.02
2018-12-27T14:06:01.975Z,38.40
2018-12-27T14:08:30.944Z,47.95
2018-12-27T14:10:59.861Z,47.65
2018-12-27T14:13:28.977Z,49.27
2018-12-27T14:15:58.009Z,48.60
2018-12-27T14:18:26.991Z,39.60
2018-12-27T14:20:55.894Z,44.93
2018-12-27T14:23:24.806Z,47.15
2018-12-27T14:25:53.933Z,41.92
2018-12-27T14:28:22.985Z,42.90
2018-12-27T14:30:52.089Z,48.70
2018-12-27T14:33:21.665Z,57.53
2018-12-27T14:35:50.768Z,51.13
2018-12-27T14:38:19.808Z,45.28
2018-12-27T14:40:51.810Z,49.18
2018-12-27T14:43:20.856Z,43.23
2018-12-27T14:45:50.217Z,48.40
2018-12-27T14:48:19.236Z,43.68
2018-12-27T14:50:48.341Z,44.53
2018-12-27T14:53:17.475Z,42.65
2018-12-27T14:55:48.454Z,43.40
2018-12-27T14:58:20.052Z,45.70
2018-12-27T15:00:49.067Z,44.75
2018-12-27T15:03:24.059Z,53.65
2018-12-27T15:05:53.233Z,50.50
2018-12-27T15:08:22.455Z,42.48
2018-12-27T15:10:51.471Z,50.35
2018-12-27T15:13:20.523Z,52.53
2018-12-27T15:15:50.861Z,48.42
2018-12-27T15:18:19.864Z,45.48
2018-12-27T15:20:49.113Z,49.73
2018-12-27T15:23:18.273Z,43.42
2018-12-27T15:25:48.771Z,50.15
2018-12-27T15:28:29.284Z,53.45
2018-12-27T15:31:01.205Z,47.35
2018-12-27T15:33:35.073Z,55.38
2018-12-27T15:36:08.857Z,51.00
2018-12-27T15:38:37.856Z,52.25
2018-12-27T15:41:12.000Z,52.70
2018-12-27T15:44:17.592Z,48.55
2018-12-27T15:46:46.500Z,54.10
2018-12-27T15:49:15.456Z,47.67
2018-12-27T15:51:44.447Z,46.70
2018-12-27T15:54:13.330Z,59.90
2018-12-27T15:57:12.894Z,52.78
2018-12-27T15:59:41.762Z,47.78
2018-12-27T16:02:10.522Z,54.58
2018-12-27T16:04:39.215Z,50.78
2018-12-27T16:07:07.985Z,48.50
2018-12-27T16:09:36.795Z,56.68
2018-12-27T16:12:05.571Z,57.23
2018-12-27T16:14:34.307Z,59.73
2018-12-27T16:17:08.708Z,58.05
2018-12-27T16:19:46.912Z,57.70
2018-12-27T16:22:15.715Z,48.73
2018-12-27T16:24:44.598Z,51.53
2018-12-27T16:27:13.687Z,49.85
2018-12-27T16:29:42.551Z,59.85
2018-12-27T16:32:11.393Z,60.25
2018-12-27T16:34:40.383Z,60.55
2018-12-27T16:37:09.424Z,57.62
2018-12-27T16:39:44.726Z,57.25
2018-12-27T16:42:22.011Z,57.03
2018-12-27T16:45:23.061Z,61.40
2018-12-27T16:48:51.797Z,60.00
2018-12-27T16:54:36.852Z,55.15
2018-12-27T16:57:22.441Z,58.28
2018-12-27T17:03:38.841Z,53.73
2018-12-27T17:06:07.966Z,45.48
2018-12-27T17:08:40.568Z,56.53
2018-12-27T17:28:27.064Z,57.73
2018-12-27T17:42:48.231Z,59.27
2018-12-27T17:51:32.327Z,60.78
2018-12-27T18:02:54.339Z,54.38
2018-12-27T18:05:52.135Z,60.70
2018-12-27T18:08:22.059Z,64.03
2018-12-27T18:10:52.743Z,53.90
2018-12-27T18:13:25.476Z,56.75
2018-12-27T18:16:40.050Z,56.80
2018-12-27T18:23:39.695Z,53.05
2018-12-27T18:26:33.022Z,57.60
2018-12-27T18:29:19.179Z,54.70
2018-12-27T18:32:39.887Z,61.53
2018-12-27T18:46:51.203Z,56.25
2018-12-27T18:49:47.261Z,54.98
2018-12-27T18:52:51.881Z,64.20
2018-12-27T22:11:28.442Z,94.25
2018-12-27T22:46:02.817Z,107.83
2018-12-27T23:20:24.500Z,103.35
2018-12-27T23:37:51.246Z,113.83
2018-12-27T23:40:23.519Z,122.05
2018-12-27T23:42:52.586Z,123.95
2018-12-27T23:45:23.693Z,125.45
2018-12-27T23:47:52.803Z,132.97
2018-12-27T23:50:21.572Z,113.45
2018-12-27T23:52:51.126Z,139.50
2018-12-27T23:55:20.897Z,114.42
2018-12-27T23:57:50.244Z,126.72
